Warren, Texas
Current Conditions -  °F | °C
As of 9:15 AM on Saturday 20 Dec 2014 (Local Time) from KJAS Reporting Station
Overcast Overcast  
Wind Chill:   Ceiling: 600
Heat Index:   Visibility: 10mi
Dew Point:   Wind: 5mph
Humidity: 95%   Direction: 30°NNE
Pressure: 30.25"   Gusts: NA
Location:  30.62°N, 94.41°W
Report Text: KJAS 201515Z AUTO 03004KT 10SM OVC006 08/08 A3025 RMK AO2 T00830076
Loading
Personal Weather Stations






























Interactive Weather Map New forecast layout! Learn more

10-Day Weather Forecast

Advertisements
Track Severe Weather on mobile